sensor_id;sensor_type;location;lat;lon;timestamp;pressure;altitude;pressure_sealevel;temperature;humidity
10518;BME280;5307;42.548;22.968;2023-05-03T00:03:02;94097.69;;;12.32;69.48
10518;BME280;5307;42.548;22.968;2023-05-03T00:05:55;94093.13;;;12.29;70.34
10518;BME280;5307;42.548;22.968;2023-05-03T00:08:22;94093.47;;;12.00;69.72
10518;BME280;5307;42.548;22.968;2023-05-03T00:10:50;94099.31;;;12.11;68.96
10518;BME280;5307;42.548;22.968;2023-05-03T00:13:25;94100.84;;;12.21;70.48
10518;BME280;5307;42.548;22.968;2023-05-03T00:15:52;94098.25;;;12.17;70.69
10518;BME280;5307;42.548;22.968;2023-05-03T00:18:19;94093.56;;;12.36;69.31
10518;BME280;5307;42.548;22.968;2023-05-03T00:20:46;94093.63;;;11.74;72.90
10518;BME280;5307;42.548;22.968;2023-05-03T00:23:12;94096.88;;;11.82;73.06
10518;BME280;5307;42.548;22.968;2023-05-03T00:25:39;94085.00;;;12.16;70.88
10518;BME280;5307;42.548;22.968;2023-05-03T00:28:07;94093.56;;;12.27;68.90
10518;BME280;5307;42.548;22.968;2023-05-03T00:30:34;94085.28;;;12.09;69.21
10518;BME280;5307;42.548;22.968;2023-05-03T00:33:01;94074.13;;;11.94;69.05
10518;BME280;5307;42.548;22.968;2023-05-03T00:35:28;94059.09;;;11.99;69.80
10518;BME280;5307;42.548;22.968;2023-05-03T00:37:55;94087.44;;;12.14;72.17
10518;BME280;5307;42.548;22.968;2023-05-03T00:40:21;94077.66;;;12.04;70.06
10518;BME280;5307;42.548;22.968;2023-05-03T00:42:48;94079.75;;;11.91;70.97
10518;BME280;5307;42.548;22.968;2023-05-03T00:45:17;94073.34;;;11.84;71.60
10518;BME280;5307;42.548;22.968;2023-05-03T00:47:44;94066.69;;;11.95;71.91
10518;BME280;5307;42.548;22.968;2023-05-03T00:50:11;94056.94;;;11.94;72.98
10518;BME280;5307;42.548;22.968;2023-05-03T00:52:38;94066.25;;;12.05;73.87
10518;BME280;5307;42.548;22.968;2023-05-03T00:55:07;94066.06;;;11.91;73.17
10518;BME280;5307;42.548;22.968;2023-05-03T00:57:34;94056.47;;;11.95;73.42
10518;BME280;5307;42.548;22.968;2023-05-03T01:00:00;94054.31;;;11.81;73.71
10518;BME280;5307;42.548;22.968;2023-05-03T01:02:29;94052.97;;;11.85;73.63
10518;BME280;5307;42.548;22.968;2023-05-03T01:04:56;94043.81;;;11.79;74.27
10518;BME280;5307;42.548;22.968;2023-05-03T01:07:30;94057.84;;;11.91;74.37
10518;BME280;5307;42.548;22.968;2023-05-03T01:10:08;94063.81;;;11.98;72.69
10518;BME280;5307;42.548;22.968;2023-05-03T01:12:47;94053.63;;;11.99;72.13
10518;BME280;5307;42.548;22.968;2023-05-03T01:15:26;94055.72;;;11.95;71.97
10518;BME280;5307;42.548;22.968;2023-05-03T01:18:04;94060.63;;;12.00;68.29
10518;BME280;5307;42.548;22.968;2023-05-03T01:20:35;94054.56;;;12.05;69.69
10518;BME280;5307;42.548;22.968;2023-05-03T01:23:10;94060.03;;;12.05;70.42
10518;BME280;5307;42.548;22.968;2023-05-03T01:25:39;94058.66;;;12.00;71.81
10518;BME280;5307;42.548;22.968;2023-05-03T01:28:06;94053.59;;;11.89;73.40
10518;BME280;5307;42.548;22.968;2023-05-03T01:30:33;94038.47;;;11.45;73.75
10518;BME280;5307;42.548;22.968;2023-05-03T01:33:07;94039.25;;;11.23;74.78
10518;BME280;5307;42.548;22.968;2023-05-03T01:35:39;94033.47;;;11.52;73.64
10518;BME280;5307;42.548;22.968;2023-05-03T01:38:07;94021.88;;;11.70;74.10
10518;BME280;5307;42.548;22.968;2023-05-03T01:40:39;94016.34;;;11.61;72.72
10518;BME280;5307;42.548;22.968;2023-05-03T01:43:08;94027.97;;;11.74;71.95
10518;BME280;5307;42.548;22.968;2023-05-03T01:45:36;94022.34;;;11.69;70.77
10518;BME280;5307;42.548;22.968;2023-05-03T01:48:08;94027.34;;;11.70;68.47
10518;BME280;5307;42.548;22.968;2023-05-03T01:50:35;94018.91;;;11.86;69.41
10518;BME280;5307;42.548;22.968;2023-05-03T01:53:02;94023.00;;;11.82;68.32
10518;BME280;5307;42.548;22.968;2023-05-03T01:55:28;94029.25;;;11.82;67.06
10518;BME280;5307;42.548;22.968;2023-05-03T01:57:57;94033.97;;;11.91;67.32
10518;BME280;5307;42.548;22.968;2023-05-03T02:00:24;94023.00;;;11.82;67.55
10518;BME280;5307;42.548;22.968;2023-05-03T02:02:51;94023.66;;;11.64;68.61
10518;BME280;5307;42.548;22.968;2023-05-03T02:05:18;94005.88;;;11.59;67.23
10518;BME280;5307;42.548;22.968;2023-05-03T02:07:44;94017.28;;;11.67;68.74
10518;BME280;5307;42.548;22.968;2023-05-03T02:10:11;94019.34;;;11.54;69.13
10518;BME280;5307;42.548;22.968;2023-05-03T02:12:39;94021.78;;;11.52;68.60
10518;BME280;5307;42.548;22.968;2023-05-03T02:15:08;94025.09;;;11.47;66.75
10518;BME280;5307;42.548;22.968;2023-05-03T02:17:35;94020.72;;;11.49;67.90
10518;BME280;5307;42.548;22.968;2023-05-03T02:20:03;94010.06;;;11.51;66.92
10518;BME280;5307;42.548;22.968;2023-05-03T02:22:31;94010.69;;;11.46;65.65
10518;BME280;5307;42.548;22.968;2023-05-03T02:24:58;94010.75;;;11.34;66.73
10518;BME280;5307;42.548;22.968;2023-05-03T02:27:25;94014.72;;;11.33;66.77
10518;BME280;5307;42.548;22.968;2023-05-03T02:29:51;94023.16;;;11.25;66.39
10518;BME280;5307;42.548;22.968;2023-05-03T02:32:19;94031.63;;;11.40;67.78
10518;BME280;5307;42.548;22.968;2023-05-03T02:34:48;94030.13;;;11.48;65.64
10518;BME280;5307;42.548;22.968;2023-05-03T02:37:15;94028.78;;;11.53;64.48
10518;BME280;5307;42.548;22.968;2023-05-03T02:39:42;94036.72;;;11.60;64.00
10518;BME280;5307;42.548;22.968;2023-05-03T02:42:08;94031.56;;;11.62;63.84
10518;BME280;5307;42.548;22.968;2023-05-03T02:44:35;94026.16;;;11.40;65.91
10518;BME280;5307;42.548;22.968;2023-05-03T02:47:02;94019.50;;;11.50;66.93
10518;BME280;5307;42.548;22.968;2023-05-03T02:49:30;94006.19;;;11.30;66.75
10518;BME280;5307;42.548;22.968;2023-05-03T02:51:57;94008.78;;;11.03;66.70
10518;BME280;5307;42.548;22.968;2023-05-03T02:54:23;94012.81;;;11.20;66.28
10518;BME280;5307;42.548;22.968;2023-05-03T02:56:50;94026.69;;;11.04;67.83
10518;BME280;5307;42.548;22.968;2023-05-03T02:59:17;94032.13;;;11.26;67.50
10518;BME280;5307;42.548;22.968;2023-05-03T03:01:44;94022.09;;;11.23;66.73
10518;BME280;5307;42.548;22.968;2023-05-03T03:04:12;94033.69;;;11.27;64.16
10518;BME280;5307;42.548;22.968;2023-05-03T03:06:41;94030.59;;;11.25;63.23
10518;BME280;5307;42.548;22.968;2023-05-03T03:09:08;94041.28;;;11.32;64.13
10518;BME280;5307;42.548;22.968;2023-05-03T03:11:35;94047.66;;;11.07;63.53
10518;BME280;5307;42.548;22.968;2023-05-03T03:14:02;94057.06;;;11.28;63.04
10518;BME280;5307;42.548;22.968;2023-05-03T03:16:28;94058.97;;;11.18;63.63
10518;BME280;5307;42.548;22.968;2023-05-03T03:18:55;94059.91;;;11.24;63.99
10518;BME280;5307;42.548;22.968;2023-05-03T03:21:22;94049.56;;;11.19;65.01
10518;BME280;5307;42.548;22.968;2023-05-03T03:23:50;94056.81;;;11.13;65.62
10518;BME280;5307;42.548;22.968;2023-05-03T03:26:17;94047.44;;;11.23;66.38
10518;BME280;5307;42.548;22.968;2023-05-03T03:28:44;94048.66;;;11.22;67.92
10518;BME280;5307;42.548;22.968;2023-05-03T03:31:10;94044.41;;;11.21;67.56
10518;BME280;5307;42.548;22.968;2023-05-03T03:33:37;94042.25;;;11.16;65.46
10518;BME280;5307;42.548;22.968;2023-05-03T03:36:04;94048.88;;;11.28;63.31
10518;BME280;5307;42.548;22.968;2023-05-03T03:38:32;94039.22;;;10.92;62.55
10518;BME280;5307;42.548;22.968;2023-05-03T03:41:00;94051.97;;;11.17;62.49
10518;BME280;5307;42.548;22.968;2023-05-03T03:43:27;94061.72;;;11.18;62.49
10518;BME280;5307;42.548;22.968;2023-05-03T03:45:54;94069.28;;;11.14;62.23
10518;BME280;5307;42.548;22.968;2023-05-03T03:48:21;94071.94;;;11.05;60.40
10518;BME280;5307;42.548;22.968;2023-05-03T03:50:48;94072.19;;;11.20;59.26
10518;BME280;5307;42.548;22.968;2023-05-03T03:53:15;94077.34;;;11.18;59.86
10518;BME280;5307;42.548;22.968;2023-05-03T03:55:41;94072.50;;;11.22;59.96
10518;BME280;5307;42.548;22.968;2023-05-03T03:58:10;94076.66;;;11.05;60.63
10518;BME280;5307;42.548;22.968;2023-05-03T04:00:37;94090.38;;;11.14;60.64
10518;BME280;5307;42.548;22.968;2023-05-03T04:03:04;94096.47;;;11.18;59.84
10518;BME280;5307;42.548;22.968;2023-05-03T04:05:31;94110.72;;;11.56;63.25
10518;BME280;5307;42.548;22.968;2023-05-03T04:07:58;94107.28;;;11.21;60.89
10518;BME280;5307;42.548;22.968;2023-05-03T04:10:25;94121.25;;;11.02;59.12
10518;BME280;5307;42.548;22.968;2023-05-03T04:13:03;94118.09;;;11.03;59.06
10518;BME280;5307;42.548;22.968;2023-05-03T04:15:31;94123.19;;;11.14;58.49
10518;BME280;5307;42.548;22.968;2023-05-03T04:17:58;94134.97;;;11.11;59.73
10518;BME280;5307;42.548;22.968;2023-05-03T04:20:37;94123.78;;;10.96;58.76
10518;BME280;5307;42.548;22.968;2023-05-03T04:23:03;94133.09;;;10.98;59.32
10518;BME280;5307;42.548;22.968;2023-05-03T04:25:30;94144.84;;;11.08;60.12
10518;BME280;5307;42.548;22.968;2023-05-03T04:27:57;94135.75;;;11.11;60.00
10518;BME280;5307;42.548;22.968;2023-05-03T04:30:24;94134.47;;;11.03;58.50
10518;BME280;5307;42.548;22.968;2023-05-03T04:32:52;94141.97;;;10.90;59.76
10518;BME280;5307;42.548;22.968;2023-05-03T04:35:19;94150.00;;;10.72;60.25
10518;BME280;5307;42.548;22.968;2023-05-03T04:37:46;94149.31;;;10.80;60.39
10518;BME280;5307;42.548;22.968;2023-05-03T04:40:13;94153.53;;;10.94;62.53
10518;BME280;5307;42.548;22.968;2023-05-03T04:42:41;94149.13;;;10.62;62.71
10518;BME280;5307;42.548;22.968;2023-05-03T04:45:09;94154.81;;;11.02;64.63
10518;BME280;5307;42.548;22.968;2023-05-03T04:47:36;94162.59;;;10.56;69.89
10518;BME280;5307;42.548;22.968;2023-05-03T04:50:06;94167.59;;;10.70;72.41
10518;BME280;5307;42.548;22.968;2023-05-03T04:52:35;94153.03;;;10.74;72.14
10518;BME280;5307;42.548;22.968;2023-05-03T04:55:02;94156.41;;;10.78;72.24
10518;BME280;5307;42.548;22.968;2023-05-03T04:57:29;94161.19;;;10.99;71.75
10518;BME280;5307;42.548;22.968;2023-05-03T04:59:56;94160.66;;;10.79;71.15
10518;BME280;5307;42.548;22.968;2023-05-03T05:02:23;94151.69;;;10.91;71.53
10518;BME280;5307;42.548;22.968;2023-05-03T05:04:51;94158.00;;;11.00;72.44
10518;BME280;5307;42.548;22.968;2023-05-03T05:07:19;94162.03;;;10.96;71.00
10518;BME280;5307;42.548;22.968;2023-05-03T05:09:46;94165.81;;;11.11;70.60
10518;BME280;5307;42.548;22.968;2023-05-03T05:12:13;94159.41;;;11.05;70.67
10518;BME280;5307;42.548;22.968;2023-05-03T05:14:40;94167.75;;;11.23;72.22
10518;BME280;5307;42.548;22.968;2023-05-03T05:17:07;94154.22;;;10.85;68.34
10518;BME280;5307;42.548;22.968;2023-05-03T05:19:34;94170.97;;;11.09;67.08
10518;BME280;5307;42.548;22.968;2023-05-03T05:22:01;94173.88;;;11.27;66.57
10518;BME280;5307;42.548;22.968;2023-05-03T05:24:29;94180.91;;;11.16;63.12
10518;BME280;5307;42.548;22.968;2023-05-03T05:26:56;94172.22;;;10.95;66.70
10518;BME280;5307;42.548;22.968;2023-05-03T05:29:23;94177.59;;;11.21;64.95
10518;BME280;5307;42.548;22.968;2023-05-03T05:31:50;94177.56;;;11.34;64.33
10518;BME280;5307;42.548;22.968;2023-05-03T05:34:17;94174.81;;;11.34;62.97
10518;BME280;5307;42.548;22.968;2023-05-03T05:36:44;94178.13;;;11.28;62.05
10518;BME280;5307;42.548;22.968;2023-05-03T05:39:11;94179.81;;;11.13;61.56
10518;BME280;5307;42.548;22.968;2023-05-03T05:41:39;94182.06;;;11.27;61.72
10518;BME280;5307;42.548;22.968;2023-05-03T05:44:06;94173.31;;;10.98;60.18
10518;BME280;5307;42.548;22.968;2023-05-03T05:46:32;94173.53;;;11.25;60.92
10518;BME280;5307;42.548;22.968;2023-05-03T05:48:59;94173.69;;;11.44;63.29
10518;BME280;5307;42.548;22.968;2023-05-03T05:51:26;94174.94;;;11.52;63.82
10518;BME280;5307;42.548;22.968;2023-05-03T05:53:54;94172.16;;;11.65;64.09
10518;BME280;5307;42.548;22.968;2023-05-03T05:56:21;94166.75;;;11.52;61.52
10518;BME280;5307;42.548;22.968;2023-05-03T05:58:49;94158.66;;;11.70;64.05
10518;BME280;5307;42.548;22.968;2023-05-03T06:01:16;94151.41;;;11.76;65.52
10518;BME280;5307;42.548;22.968;2023-05-03T06:03:43;94146.91;;;11.82;65.00
10518;BME280;5307;42.548;22.968;2023-05-03T06:06:10;94142.50;;;11.63;65.56
10518;BME280;5307;42.548;22.968;2023-05-03T06:08:37;94148.59;;;11.67;65.03
10518;BME280;5307;42.548;22.968;2023-05-03T06:11:04;94135.88;;;11.73;64.85
10518;BME280;5307;42.548;22.968;2023-05-03T06:13:32;94136.66;;;11.74;63.73
10518;BME280;5307;42.548;22.968;2023-05-03T06:16:04;94134.75;;;11.83;64.36
10518;BME280;5307;42.548;22.968;2023-05-03T06:18:31;94131.28;;;11.92;64.74
10518;BME280;5307;42.548;22.968;2023-05-03T06:20:58;94137.84;;;11.95;62.82
10518;BME280;5307;42.548;22.968;2023-05-03T06:23:25;94153.94;;;11.93;62.57
10518;BME280;5307;42.548;22.968;2023-05-03T06:25:52;94155.44;;;11.84;62.87
10518;BME280;5307;42.548;22.968;2023-05-03T06:28:19;94161.69;;;11.94;63.31
10518;BME280;5307;42.548;22.968;2023-05-03T06:30:50;94153.19;;;11.92;63.01
10518;BME280;5307;42.548;22.968;2023-05-03T06:33:18;94141.97;;;11.77;63.22
10518;BME280;5307;42.548;22.968;2023-05-03T06:35:45;94152.69;;;11.84;64.33
10518;BME280;5307;42.548;22.968;2023-05-03T06:38:12;94153.63;;;11.91;64.46
10518;BME280;5307;42.548;22.968;2023-05-03T06:40:39;94147.25;;;11.94;62.89
10518;BME280;5307;42.548;22.968;2023-05-03T06:43:06;94144.28;;;12.10;61.89
10518;BME280;5307;42.548;22.968;2023-05-03T06:45:34;94136.22;;;12.06;62.20
10518;BME280;5307;42.548;22.968;2023-05-03T06:48:01;94134.84;;;12.02;61.50
10518;BME280;5307;42.548;22.968;2023-05-03T06:50:29;94140.03;;;12.09;61.46
10518;BME280;5307;42.548;22.968;2023-05-03T06:52:56;94146.00;;;12.16;61.61
10518;BME280;5307;42.548;22.968;2023-05-03T06:55:23;94154.38;;;12.22;62.39
10518;BME280;5307;42.548;22.968;2023-05-03T06:57:50;94146.75;;;12.17;61.98
10518;BME280;5307;42.548;22.968;2023-05-03T07:00:19;94157.16;;;12.31;63.12
10518;BME280;5307;42.548;22.968;2023-05-03T07:02:46;94166.75;;;12.27;61.37
10518;BME280;5307;42.548;22.968;2023-05-03T07:05:12;94161.22;;;12.17;59.78
10518;BME280;5307;42.548;22.968;2023-05-03T07:07:41;94164.88;;;12.55;60.60
10518;BME280;5307;42.548;22.968;2023-05-03T07:10:07;94140.78;;;12.49;60.58
10518;BME280;5307;42.548;22.968;2023-05-03T07:12:34;94144.69;;;12.30;60.53
10518;BME280;5307;42.548;22.968;2023-05-03T07:15:01;94151.53;;;12.26;60.86
10518;BME280;5307;42.548;22.968;2023-05-03T07:17:28;94148.22;;;12.40;60.39
10518;BME280;5307;42.548;22.968;2023-05-03T07:19:55;94147.13;;;12.37;59.47
10518;BME280;5307;42.548;22.968;2023-05-03T07:22:22;94149.19;;;12.64;59.63
10518;BME280;5307;42.548;22.968;2023-05-03T07:24:52;94152.13;;;12.79;58.39
10518;BME280;5307;42.548;22.968;2023-05-03T07:27:19;94152.28;;;12.94;58.07
10518;BME280;5307;42.548;22.968;2023-05-03T07:29:45;94147.31;;;13.20;59.27
10518;BME280;5307;42.548;22.968;2023-05-03T07:32:12;94154.97;;;13.25;57.34
10518;BME280;5307;42.548;22.968;2023-05-03T07:34:39;94139.22;;;13.07;56.03
10518;BME280;5307;42.548;22.968;2023-05-03T07:37:06;94138.66;;;13.40;56.80
10518;BME280;5307;42.548;22.968;2023-05-03T07:39:33;94141.06;;;13.47;54.69
10518;BME280;5307;42.548;22.968;2023-05-03T07:42:02;94148.22;;;13.35;54.22
10518;BME280;5307;42.548;22.968;2023-05-03T07:44:29;94154.31;;;13.48;54.38
10518;BME280;5307;42.548;22.968;2023-05-03T07:46:55;94161.34;;;13.58;56.63
10518;BME280;5307;42.548;22.968;2023-05-03T07:49:22;94170.19;;;13.35;56.82
10518;BME280;5307;42.548;22.968;2023-05-03T07:51:49;94175.22;;;13.27;56.54
10518;BME280;5307;42.548;22.968;2023-05-03T07:54:16;94178.72;;;13.19;57.70
10518;BME280;5307;42.548;22.968;2023-05-03T07:56:43;94173.84;;;13.41;58.49
10518;BME280;5307;42.548;22.968;2023-05-03T07:59:11;94169.69;;;13.09;57.76
10518;BME280;5307;42.548;22.968;2023-05-03T08:01:38;94160.44;;;13.52;58.40
10518;BME280;5307;42.548;22.968;2023-05-03T08:04:05;94159.38;;;13.31;57.59
10518;BME280;5307;42.548;22.968;2023-05-03T08:06:32;94170.94;;;13.35;59.04
10518;BME280;5307;42.548;22.968;2023-05-03T08:08:59;94150.69;;;13.42;57.90
10518;BME280;5307;42.548;22.968;2023-05-03T08:11:28;94156.28;;;13.84;58.46
10518;BME280;5307;42.548;22.968;2023-05-03T08:13:55;94157.22;;;13.72;57.08
10518;BME280;5307;42.548;22.968;2023-05-03T08:16:23;94169.72;;;13.73;57.87
10518;BME280;5307;42.548;22.968;2023-05-03T08:18:50;94175.03;;;13.77;57.29
10518;BME280;5307;42.548;22.968;2023-05-03T08:21:17;94174.59;;;13.51;56.69
10518;BME280;5307;42.548;22.968;2023-05-03T08:23:44;94176.41;;;13.72;58.55
10518;BME280;5307;42.548;22.968;2023-05-03T08:26:11;94170.78;;;13.76;57.42
10518;BME280;5307;42.548;22.968;2023-05-03T08:28:38;94173.97;;;13.83;57.80
10518;BME280;5307;42.548;22.968;2023-05-03T08:31:05;94179.66;;;13.52;56.16
10518;BME280;5307;42.548;22.968;2023-05-03T08:33:33;94180.81;;;13.97;56.76
10518;BME280;5307;42.548;22.968;2023-05-03T08:36:00;94180.94;;;14.03;58.27
10518;BME280;5307;42.548;22.968;2023-05-03T08:38:27;94176.38;;;14.09;57.98
10518;BME280;5307;42.548;22.968;2023-05-03T08:40:57;94180.19;;;13.93;57.34
10518;BME280;5307;42.548;22.968;2023-05-03T08:43:26;94183.22;;;14.04;58.76
10518;BME280;5307;42.548;22.968;2023-05-03T08:45:53;94182.41;;;13.52;56.24
10518;BME280;5307;42.548;22.968;2023-05-03T08:48:20;94182.06;;;13.50;56.46
10518;BME280;5307;42.548;22.968;2023-05-03T08:50:50;94173.84;;;13.41;55.96
10518;BME280;5307;42.548;22.968;2023-05-03T08:53:18;94183.25;;;14.55;54.34
10518;BME280;5307;42.548;22.968;2023-05-03T08:55:45;94165.41;;;15.08;52.15
10518;BME280;5307;42.548;22.968;2023-05-03T08:58:12;94167.91;;;14.64;51.39
10518;BME280;5307;42.548;22.968;2023-05-03T09:00:39;94153.44;;;15.11;52.84
10518;BME280;5307;42.548;22.968;2023-05-03T09:03:09;94162.75;;;14.66;51.60
10518;BME280;5307;42.548;22.968;2023-05-03T09:05:36;94154.97;;;15.12;51.56
10518;BME280;5307;42.548;22.968;2023-05-03T09:08:08;94162.03;;;15.04;50.22
10518;BME280;5307;42.548;22.968;2023-05-03T09:10:39;94142.81;;;16.11;52.61
10518;BME280;5307;42.548;22.968;2023-05-03T09:13:08;94136.56;;;16.45;49.44
10518;BME280;5307;42.548;22.968;2023-05-03T09:15:35;94121.97;;;16.74;48.26
10518;BME280;5307;42.548;22.968;2023-05-03T09:18:12;94117.72;;;16.58;50.62
10518;BME280;5307;42.548;22.968;2023-05-03T09:20:42;94106.25;;;16.45;51.59
10518;BME280;5307;42.548;22.968;2023-05-03T09:23:17;94101.97;;;16.44;52.41
10518;BME280;5307;42.548;22.968;2023-05-03T09:25:46;94104.34;;;16.51;50.31
10518;BME280;5307;42.548;22.968;2023-05-03T09:28:13;94110.13;;;16.03;49.25
10518;BME280;5307;42.548;22.968;2023-05-03T09:30:41;94102.63;;;16.54;48.08
10518;BME280;5307;42.548;22.968;2023-05-03T09:33:08;94101.94;;;16.24;47.97
10518;BME280;5307;42.548;22.968;2023-05-03T09:35:36;94095.97;;;16.46;48.97
10518;BME280;5307;42.548;22.968;2023-05-03T09:38:03;94111.34;;;15.73;50.25
10518;BME280;5307;42.548;22.968;2023-05-03T09:40:31;94119.81;;;15.84;51.97
10518;BME280;5307;42.548;22.968;2023-05-03T09:43:06;94110.28;;;16.15;50.31
10518;BME280;5307;42.548;22.968;2023-05-03T09:45:33;94110.88;;;16.19;51.29
10518;BME280;5307;42.548;22.968;2023-05-03T09:48:01;94107.38;;;16.53;49.63
10518;BME280;5307;42.548;22.968;2023-05-03T09:50:30;94114.97;;;15.79;49.57
10518;BME280;5307;42.548;22.968;2023-05-03T09:53:00;94095.56;;;15.59;49.76
10518;BME280;5307;42.548;22.968;2023-05-03T09:55:32;94100.06;;;16.00;51.51
10518;BME280;5307;42.548;22.968;2023-05-03T09:58:00;94089.56;;;16.34;52.89
10518;BME280;5307;42.548;22.968;2023-05-03T10:00:28;94084.91;;;16.60;50.46
10518;BME280;5307;42.548;22.968;2023-05-03T10:02:56;94077.03;;;16.88;50.06
10518;BME280;5307;42.548;22.968;2023-05-03T10:05:25;94066.75;;;17.82;49.71
10518;BME280;5307;42.548;22.968;2023-05-03T10:07:55;94072.22;;;17.04;49.03
10518;BME280;5307;42.548;22.968;2023-05-03T10:10:23;94065.09;;;16.42;47.99
10518;BME280;5307;42.548;22.968;2023-05-03T10:12:52;94072.44;;;16.65;49.12
10518;BME280;5307;42.548;22.968;2023-05-03T10:15:21;94067.66;;;16.45;49.83
10518;BME280;5307;42.548;22.968;2023-05-03T10:17:49;94069.56;;;16.19;48.82
10518;BME280;5307;42.548;22.968;2023-05-03T10:20:25;94060.56;;;16.59;50.39
10518;BME280;5307;42.548;22.968;2023-05-03T10:23:09;94064.22;;;16.50;50.74
10518;BME280;5307;42.548;22.968;2023-05-03T10:25:37;94067.69;;;16.30;51.72
10518;BME280;5307;42.548;22.968;2023-05-03T10:28:06;94066.22;;;16.00;49.15
10518;BME280;5307;42.548;22.968;2023-05-03T10:30:34;94064.91;;;16.10;48.41
10518;BME280;5307;42.548;22.968;2023-05-03T10:33:29;94063.66;;;16.46;49.08
10518;BME280;5307;42.548;22.968;2023-05-03T10:35:57;94055.78;;;16.74;48.53
10518;BME280;5307;42.548;22.968;2023-05-03T10:38:26;94071.91;;;17.02;50.57
10518;BME280;5307;42.548;22.968;2023-05-03T10:41:23;94071.59;;;16.94;48.88
10518;BME280;5307;42.548;22.968;2023-05-03T10:43:51;94064.53;;;16.73;50.59
10518;BME280;5307;42.548;22.968;2023-05-03T10:46:32;94060.56;;;16.59;51.19
10518;BME280;5307;42.548;22.968;2023-05-03T10:49:24;94062.78;;;16.90;52.04
10518;BME280;5307;42.548;22.968;2023-05-03T10:51:51;94066.84;;;16.59;49.81
10518;BME280;5307;42.548;22.968;2023-05-03T10:54:18;94068.19;;;16.29;50.99
10518;BME280;5307;42.548;22.968;2023-05-03T10:56:55;94067.06;;;16.56;52.09
10518;BME280;5307;42.548;22.968;2023-05-03T10:59:23;94066.84;;;16.59;51.39
10518;BME280;5307;42.548;22.968;2023-05-03T11:01:51;94071.97;;;15.82;51.48
10518;BME280;5307;42.548;22.968;2023-05-03T11:04:38;94071.84;;;16.06;52.88
10518;BME280;5307;42.548;22.968;2023-05-03T11:07:07;94066.88;;;16.24;54.01
10518;BME280;5307;42.548;22.968;2023-05-03T11:09:34;94069.81;;;16.21;53.40
10518;BME280;5307;42.548;22.968;2023-05-03T11:12:05;94057.56;;;16.22;54.09
10518;BME280;5307;42.548;22.968;2023-05-03T11:14:34;94055.44;;;16.31;53.01
10518;BME280;5307;42.548;22.968;2023-05-03T11:17:01;94035.81;;;16.09;52.86
10518;BME280;5307;42.548;22.968;2023-05-03T11:19:28;94044.34;;;16.26;52.08
10518;BME280;5307;42.548;22.968;2023-05-03T11:21:56;94025.47;;;16.04;52.00
10518;BME280;5307;42.548;22.968;2023-05-03T11:24:23;94040.03;;;16.60;52.47
10518;BME280;5307;42.548;22.968;2023-05-03T11:26:50;94038.13;;;16.66;51.76
10518;BME280;5307;42.548;22.968;2023-05-03T11:29:17;94019.03;;;16.83;53.48
10518;BME280;5307;42.548;22.968;2023-05-03T11:31:46;94016.97;;;16.78;51.34
10518;BME280;5307;42.548;22.968;2023-05-03T11:34:14;94007.03;;;17.06;54.81
10518;BME280;5307;42.548;22.968;2023-05-03T11:36:41;94014.31;;;17.09;52.43
10518;BME280;5307;42.548;22.968;2023-05-03T11:39:08;94016.06;;;17.33;51.74
10518;BME280;5307;42.548;22.968;2023-05-03T11:41:37;94012.09;;;17.13;52.03
10518;BME280;5307;42.548;22.968;2023-05-03T11:44:06;94009.34;;;17.13;51.77
10518;BME280;5307;42.548;22.968;2023-05-03T11:46:35;94000.97;;;16.61;51.35
10518;BME280;5307;42.548;22.968;2023-05-03T11:49:04;93990.56;;;16.71;51.28
10518;BME280;5307;42.548;22.968;2023-05-03T11:51:30;93976.34;;;17.25;54.56
10518;BME280;5307;42.548;22.968;2023-05-03T11:53:58;93969.69;;;17.37;52.41
10518;BME280;5307;42.548;22.968;2023-05-03T11:56:32;93968.03;;;17.50;51.48
10518;BME280;5307;42.548;22.968;2023-05-03T11:58:59;93961.88;;;17.67;53.63
10518;BME280;5307;42.548;22.968;2023-05-03T12:01:27;93957.94;;;16.90;50.99
10518;BME280;5307;42.548;22.968;2023-05-03T12:03:56;93962.94;;;17.69;52.58
10518;BME280;5307;42.548;22.968;2023-05-03T12:06:25;93946.97;;;17.85;51.55
10518;BME280;5307;42.548;22.968;2023-05-03T12:08:53;93947.19;;;17.75;51.04
10518;BME280;5307;42.548;22.968;2023-05-03T12:11:20;93938.84;;;17.44;50.21
10518;BME280;5307;42.548;22.968;2023-05-03T12:13:55;93925.06;;;17.75;53.50
10518;BME280;5307;42.548;22.968;2023-05-03T12:16:23;93930.88;;;17.77;50.79
10518;BME280;5307;42.548;22.968;2023-05-03T12:18:51;93929.41;;;17.56;50.91
10518;BME280;5307;42.548;22.968;2023-05-03T12:21:19;93920.84;;;17.86;52.05
10518;BME280;5307;42.548;22.968;2023-05-03T12:23:47;93923.84;;;17.82;51.87
10518;BME280;5307;42.548;22.968;2023-05-03T12:26:16;93915.53;;;17.76;50.36
10518;BME280;5307;42.548;22.968;2023-05-03T12:28:43;93918.09;;;17.86;52.11
10518;BME280;5307;42.548;22.968;2023-05-03T12:31:10;93906.00;;;17.77;52.68
10518;BME280;5307;42.548;22.968;2023-05-03T12:33:37;93911.47;;;17.72;52.28
10518;BME280;5307;42.548;22.968;2023-05-03T12:36:04;93908.41;;;17.64;51.83
10518;BME280;5307;42.548;22.968;2023-05-03T12:38:32;93915.31;;;17.48;52.28
10518;BME280;5307;42.548;22.968;2023-05-03T12:41:00;93918.25;;;17.39;53.83
10518;BME280;5307;42.548;22.968;2023-05-03T12:46:20;93909.03;;;16.90;53.23
10518;BME280;5307;42.548;22.968;2023-05-03T12:48:48;93907.84;;;16.97;52.08
10518;BME280;5307;42.548;22.968;2023-05-03T12:51:14;93903.84;;;16.98;52.56
10518;BME280;5307;42.548;22.968;2023-05-03T12:53:41;93902.91;;;16.81;55.79
10518;BME280;5307;42.548;22.968;2023-05-03T12:56:10;93901.97;;;16.63;58.99
10518;BME280;5307;42.548;22.968;2023-05-03T12:58:36;93907.59;;;16.75;63.82
10518;BME280;5307;42.548;22.968;2023-05-03T13:01:04;93912.19;;;16.37;62.57
10518;BME280;5307;42.548;22.968;2023-05-03T13:03:30;93921.13;;;16.32;60.17
10518;BME280;5307;42.548;22.968;2023-05-03T13:05:57;93927.63;;;16.29;61.75
10518;BME280;5307;42.548;22.968;2023-05-03T13:08:24;93943.06;;;16.21;65.54
10518;BME280;5307;42.548;22.968;2023-05-03T13:10:52;93951.34;;;16.21;67.18